Gabo Island, Victoria

7:54 PM AEST on October 01, 2014 (GMT +1000)
Main Wharf, Mallacoota, Vic, Australia | Change Station
CLOSE
Current Station
Personal Weather Station
Location: Mallacoota, VICTORIA
Elevation: 29 ft
Nearby Weather Stations

Elev 29 ft 37.55 °S, 149.76 °E | Updated 3 seconds ago

Clear
Clear
50.6 °F
Feels Like 50.6 °F
N
1.6
Wind Variable Wind from WSW
Gusts 2.0 mph

Today
High -- | Low -- °F
--% Chance of Precip.
Yesterday
High -- | Low -- °F
Precip. -- in
5:36 AM 6:04 PM
Waxing Crescent, 46% visible
Pressure 29.59 in
Visibility 6.2 miles
Clouds
Dew Point 42 °F
Humidity 74%
Rainfall 0.13 in
Snow Depth Not available.
UV Not available.
Pollen Not available.
Air Quality Not available.
Flu Activity Not available.
METAR YMER 300700Z AUTO 29021G33KT 9999 // NCD 26/02 Q1002

More Conditions Fewer Conditions

Pressure 29.59 in
Visibility 6.2 miles
Clouds
Dew Point 42 °F
Humidity 74%
Rainfall 0.13 in
Snow Depth Not available.
UV Not available.
Pollen Not available.
Air Quality Not available.
Flu Activity Not available.
METAR YMER 300700Z AUTO 29021G33KT 9999 // NCD 26/02 Q1002

More Conditions Fewer Conditions

10-Day Weather Forecast

Almanac

Astronomy

Oct. 01, 2014 Rise Set
Actual Time 5:36 AM AEST 6:04 PM AEST
Civil Twilight 5:10 AM AEST 6:30 PM AEST
Nautical Twilight 4:39 AM AEST 7:01 PM AEST
Astronomical Twilight 4:08 AM AEST 7:32 PM AEST
Moon 10:12 AM AEST No Moon Set
Length of Visible Light 13h 19m
Length of Day
12h 27m
Tomorrow will be 2m 23s longer.
Waxing Crescent, 46% of the Moon is Illuminated
Today
Waxing Crescent
Oct 1
First Quarter
Oct 8
Full
Oct 15
Last Quarter
Oct 23
New

Yesterday's Extremes

Country Highs Country Lows

Community

WunderPhotos

Upload Photos

1,757,904 photos uploaded!

WunderBlogs® & News

Nearby

Snow Depth

Not available.

Earthquake Activity

City Distance Mag. Time & Date
No recent earthquake activity has been reported nearby.
Minimum magnitude displayed is 2.5.

Coastal Water Temperatures

Place Temperature
No Stations Reporting

Nearby Weather Stations